createdAt,value
2022-07-30T00:00:33.831Z,99656.47
2022-07-30T00:10:09.588Z,99657.09
2022-07-30T00:19:43.770Z,99646.21
2022-07-30T00:29:15.957Z,99631.48
2022-07-30T00:38:50.196Z,99610.86
2022-07-30T00:48:26.289Z,99609.77
2022-07-30T00:58:00.481Z,99614.27
2022-07-30T01:07:34.658Z,99609.30
2022-07-30T01:17:09.193Z,99613.38
2022-07-30T01:26:41.589Z,99620.34
2022-07-30T01:36:15.858Z,99625.11
2022-07-30T01:45:50.526Z,99627.16
2022-07-30T01:55:24.509Z,99632.13
2022-07-30T02:04:58.407Z,99642.75
2022-07-30T02:14:32.221Z,99644.89
2022-07-30T02:24:06.206Z,99646.91
2022-07-30T02:33:41.216Z,99646.17
2022-07-30T02:43:15.949Z,99650.91
2022-07-30T02:52:50.054Z,99657.91
2022-07-30T03:02:25.664Z,99653.14
2022-07-30T03:11:56.579Z,99653.30
2022-07-30T03:21:30.665Z,99655.57
2022-07-30T03:31:04.550Z,99654.29
2022-07-30T03:40:37.608Z,99654.63
2022-07-30T03:50:13.383Z,99665.24
2022-07-30T03:59:47.709Z,99680.89
2022-07-30T04:09:20.177Z,99690.05
2022-07-30T04:18:54.369Z,99698.45
2022-07-30T04:28:29.874Z,99710.96
2022-07-30T04:38:02.221Z,99719.28
2022-07-30T04:47:36.326Z,99736.05
2022-07-30T04:57:09.672Z,99742.47
2022-07-30T05:06:43.557Z,99742.00
2022-07-30T05:16:15.319Z,99754.17
2022-07-30T05:25:47.426Z,99754.25
2022-07-30T05:35:22.875Z,99754.41
2022-07-30T05:44:56.656Z,99768.37
2022-07-30T05:54:30.698Z,99765.16
2022-07-30T06:04:03.203Z,99768.50
2022-07-30T06:05:11.294Z,99777.86
2022-07-30T06:14:39.647Z,99773.42
2022-07-30T06:15:42.194Z,99775.49
2022-07-30T06:16:44.616Z,99778.93
2022-07-30T06:17:51.076Z,99777.89
2022-07-30T06:18:50.961Z,99779.24
2022-07-30T06:19:53.447Z,99779.52
2022-07-30T06:29:27.478Z,99784.14
2022-07-30T06:30:30.274Z,99782.92
2022-07-30T06:31:32.296Z,99778.09
2022-07-30T06:32:34.697Z,99785.13
2022-07-30T06:33:37.130Z,99780.89
2022-07-30T06:34:41.178Z,99780.34
2022-07-30T06:35:45.160Z,99774.98
2022-07-30T06:36:49.027Z,99786.11
2022-07-30T06:37:58.897Z,99786.33
2022-07-30T06:38:55.319Z,99784.61
2022-07-30T06:40:03.398Z,99785.19
2022-07-30T06:41:05.506Z,99787.17
2022-07-30T06:42:09.332Z,99790.45
2022-07-30T06:43:17.296Z,99786.44
2022-07-30T06:52:45.513Z,99796.52
2022-07-30T07:02:19.658Z,99798.59
2022-07-30T07:03:22.129Z,99803.44
2022-07-30T07:04:24.639Z,99797.70
2022-07-30T07:05:27.060Z,99801.86
2022-07-30T07:06:29.483Z,99802.80
2022-07-30T07:07:41.657Z,99801.91
2022-07-30T07:08:36.092Z,99799.34
2022-07-30T07:09:40.035Z,99798.75
2022-07-30T07:10:42.367Z,99796.89
2022-07-30T07:11:44.826Z,99800.63
2022-07-30T07:12:47.251Z,99796.31
2022-07-30T07:13:49.709Z,99804.03
2022-07-30T07:14:53.797Z,99801.95
2022-07-30T07:15:57.662Z,99802.45
2022-07-30T07:17:00.210Z,99801.31
2022-07-30T07:18:04.033Z,99798.60
2022-07-30T07:19:06.279Z,99800.15
2022-07-30T07:20:14.332Z,99805.34
2022-07-30T07:21:16.462Z,99798.03
2022-07-30T07:22:18.856Z,99797.62
2022-07-30T07:23:21.417Z,99800.66
2022-07-30T07:24:25.347Z,99804.05
2022-07-30T07:25:29.218Z,99806.48
2022-07-30T07:26:33.117Z,99803.48
2022-07-30T07:27:35.497Z,99805.36
2022-07-30T07:28:37.916Z,99807.55
2022-07-30T07:29:41.935Z,99807.47
2022-07-30T07:30:44.567Z,99806.55
2022-07-30T07:32:03.089Z,99810.34
2022-07-30T07:32:49.170Z,99806.66
2022-07-30T07:33:53.123Z,99805.02
2022-07-30T07:34:55.507Z,99800.26
2022-07-30T07:35:57.840Z,99802.40
2022-07-30T07:37:02.243Z,99805.97
2022-07-30T07:38:05.850Z,99802.93
2022-07-30T07:39:08.147Z,99802.66
2022-07-30T07:40:12.163Z,99804.28
2022-07-30T07:41:14.700Z,99800.27
2022-07-30T07:42:16.995Z,99802.31
2022-07-30T07:43:19.464Z,99803.91
2022-07-30T07:44:21.884Z,99801.92
2022-07-30T07:45:25.951Z,99806.06
2022-07-30T07:46:33.334Z,99806.03
2022-07-30T07:47:32.292Z,99809.98
2022-07-30T07:48:34.745Z,99795.42
2022-07-30T07:49:36.985Z,99807.16
2022-07-30T07:50:41.013Z,99807.73
2022-07-30T07:51:47.911Z,99805.72
2022-07-30T07:52:45.874Z,99808.53
2022-07-30T07:54:00.407Z,99809.84
2022-07-30T07:54:52.426Z,99812.20
2022-07-30T07:55:54.720Z,99799.92
2022-07-30T07:56:59.167Z,99807.42
2022-07-30T07:58:01.012Z,99803.34
2022-07-30T07:59:03.339Z,99804.11
2022-07-30T08:00:05.847Z,99803.41
2022-07-30T08:01:09.911Z,99800.66
2022-07-30T08:02:13.817Z,99804.88
2022-07-30T08:03:16.122Z,99802.16
2022-07-30T08:04:18.539Z,99805.80
2022-07-30T08:05:21.020Z,99799.28
2022-07-30T08:06:29.064Z,99805.37
2022-07-30T08:07:33.093Z,99804.70
2022-07-30T08:08:35.322Z,99802.92
2022-07-30T08:09:40.990Z,99802.54
2022-07-30T08:19:12.732Z,99803.23
2022-07-30T08:20:15.114Z,99805.48
2022-07-30T08:21:19.212Z,99805.63
2022-07-30T08:22:21.587Z,99809.06
2022-07-30T08:23:24.022Z,99807.84
2022-07-30T08:24:28.094Z,99804.92
2022-07-30T08:25:30.444Z,99798.33
2022-07-30T08:26:32.983Z,99804.40
2022-07-30T08:27:37.380Z,99807.54
2022-07-30T08:28:41.335Z,99800.55
2022-07-30T08:29:49.159Z,99809.07
2022-07-30T08:30:51.253Z,99804.89
2022-07-30T08:31:55.337Z,99807.02
2022-07-30T08:32:57.625Z,99808.77
2022-07-30T08:34:01.703Z,99807.95
2022-07-30T08:35:05.591Z,99803.70
2022-07-30T08:36:10.279Z,99814.41
2022-07-30T08:37:11.904Z,99806.73
2022-07-30T08:38:14.331Z,99808.56
2022-07-30T08:39:16.836Z,99806.98
2022-07-30T08:40:19.265Z,99810.55
2022-07-30T08:41:21.799Z,99806.02
2022-07-30T08:42:25.855Z,99809.94
2022-07-30T08:43:28.096Z,99799.80
2022-07-30T08:44:32.391Z,99805.48
2022-07-30T08:45:35.398Z,99805.03
2022-07-30T08:46:36.989Z,99808.78
2022-07-30T08:47:41.076Z,99804.21
2022-07-30T08:48:43.374Z,99812.42
2022-07-30T08:49:47.438Z,99804.03
2022-07-30T08:50:51.324Z,99806.52
2022-07-30T08:51:53.634Z,99811.38
2022-07-30T08:52:57.733Z,99808.68
2022-07-30T08:54:00.102Z,99809.34
2022-07-30T08:55:02.567Z,99807.73
2022-07-30T08:56:05.062Z,99812.00
2022-07-30T08:57:07.449Z,99814.84
2022-07-30T08:58:09.941Z,99813.19
2022-07-30T08:59:12.349Z,99816.38
2022-07-30T09:00:14.875Z,99812.03
2022-07-30T09:01:17.277Z,99811.22
2022-07-30T09:02:27.282Z,99812.70
2022-07-30T09:03:23.799Z,99808.56
2022-07-30T09:04:26.310Z,99810.89
2022-07-30T09:05:28.801Z,99805.97
2022-07-30T09:06:31.331Z,99805.77
2022-07-30T09:07:33.800Z,99806.14
2022-07-30T09:08:36.281Z,99810.03
2022-07-30T09:09:40.272Z,99816.91
2022-07-30T09:10:42.968Z,99811.11
2022-07-30T09:11:45.296Z,99809.36
2022-07-30T09:12:47.640Z,99809.29
2022-07-30T09:13:55.126Z,99815.83
2022-07-30T09:14:58.939Z,99801.86
2022-07-30T09:16:01.274Z,99813.20
2022-07-30T09:17:04.015Z,99814.45
2022-07-30T09:18:07.638Z,99810.41
2022-07-30T09:19:11.580Z,99810.61
2022-07-30T09:20:13.944Z,99813.04
2022-07-30T09:21:16.353Z,99810.31
2022-07-30T09:22:24.435Z,99806.76
2022-07-30T09:23:26.746Z,99812.02
2022-07-30T09:24:28.975Z,99810.42
2022-07-30T09:25:31.683Z,99811.30
2022-07-30T09:26:39.753Z,99821.71
2022-07-30T09:27:43.453Z,99819.34
2022-07-30T09:28:45.838Z,99826.14
2022-07-30T09:29:54.074Z,99813.17
2022-07-30T09:30:56.327Z,99811.56
2022-07-30T09:31:58.649Z,99808.55
2022-07-30T09:33:02.672Z,99802.06
2022-07-30T09:34:04.991Z,99804.77
2022-07-30T09:35:08.979Z,99829.83
2022-07-30T09:36:12.943Z,99811.83
2022-07-30T09:37:15.314Z,99806.77
2022-07-30T09:38:17.963Z,99813.07
2022-07-30T09:39:20.191Z,99808.97
2022-07-30T09:40:27.859Z,99823.22
2022-07-30T09:41:38.621Z,99813.69
2022-07-30T09:42:33.260Z,99825.02
2022-07-30T09:43:37.050Z,99811.91
2022-07-30T09:44:45.041Z,99813.31
2022-07-30T09:45:56.938Z,99804.56
2022-07-30T09:46:52.809Z,99822.34
2022-07-30T09:47:55.056Z,99813.78
2022-07-30T09:48:57.589Z,99814.73
2022-07-30T09:50:05.533Z,99818.77
2022-07-30T09:51:04.020Z,99813.36
2022-07-30T09:52:08.484Z,99808.59
2022-07-30T09:53:16.336Z,99810.41
2022-07-30T09:54:18.491Z,99816.20
2022-07-30T09:55:26.751Z,99812.66
2022-07-30T09:56:30.396Z,99822.22
2022-07-30T09:57:34.243Z,99817.65
2022-07-30T09:58:36.622Z,99838.72
2022-07-30T09:59:40.772Z,99812.58
2022-07-30T10:00:44.740Z,99819.63
2022-07-30T10:01:50.069Z,99807.94
2022-07-30T10:02:51.163Z,99814.23
2022-07-30T10:03:55.112Z,99817.31
2022-07-30T10:04:59.022Z,99813.71
2022-07-30T10:06:01.351Z,99813.88
2022-07-30T10:07:03.927Z,99813.20
2022-07-30T10:08:09.560Z,99798.67
2022-07-30T10:09:13.809Z,99813.78
2022-07-30T10:10:14.497Z,99811.22
2022-07-30T10:11:16.955Z,99806.75
2022-07-30T10:12:19.446Z,99808.79
2022-07-30T10:13:21.910Z,99807.24
2022-07-30T10:14:30.927Z,99815.59
2022-07-30T10:15:26.861Z,99812.57
2022-07-30T10:16:29.743Z,99803.48
2022-07-30T10:17:33.262Z,99807.59
2022-07-30T10:18:41.254Z,99823.31
2022-07-30T10:19:45.015Z,99805.98
2022-07-30T10:20:48.948Z,99814.21
2022-07-30T10:21:51.278Z,99808.28
2022-07-30T10:22:55.333Z,99811.47
2022-07-30T10:23:59.270Z,99811.46
2022-07-30T10:25:01.616Z,99808.63
2022-07-30T10:26:04.163Z,99809.68
2022-07-30T10:27:07.681Z,99800.91
2022-07-30T10:28:09.137Z,99796.70
2022-07-30T10:29:17.185Z,99804.92
2022-07-30T10:30:24.984Z,99803.73
2022-07-30T10:31:46.577Z,99801.67
2022-07-30T10:40:57.958Z,99803.39
2022-07-30T10:42:00.413Z,99799.75
2022-07-30T10:43:02.849Z,99806.03
2022-07-30T10:44:10.943Z,99807.50
2022-07-30T10:45:18.772Z,99800.52
2022-07-30T10:46:22.924Z,99786.00
2022-07-30T10:47:29.174Z,99799.13
2022-07-30T10:56:55.908Z,99795.27
2022-07-30T10:58:00.097Z,99793.27
2022-07-30T10:59:02.793Z,99787.38
2022-07-30T11:00:04.930Z,99796.56
2022-07-30T11:01:16.603Z,99795.84
2022-07-30T11:02:10.068Z,99789.10
2022-07-30T11:03:14.317Z,99784.33
2022-07-30T11:04:16.439Z,99779.68
2022-07-30T11:05:27.472Z,99794.25
2022-07-30T11:06:24.844Z,99796.25
2022-07-30T11:07:26.845Z,99805.84
2022-07-30T11:08:30.968Z,99792.67
2022-07-30T11:09:31.828Z,99796.95
2022-07-30T11:10:34.347Z,99797.09
2022-07-30T11:11:59.794Z,99791.25
2022-07-30T11:12:42.345Z,99782.61
2022-07-30T11:13:46.290Z,99791.38
2022-07-30T11:14:48.619Z,99796.91
2022-07-30T11:15:52.656Z,99792.00
2022-07-30T11:16:54.991Z,99798.75
2022-07-30T11:17:57.473Z,99795.62
2022-07-30T11:19:19.739Z,99798.14
2022-07-30T11:20:04.021Z,99795.45
2022-07-30T11:21:08.050Z,99786.59
2022-07-30T11:22:11.199Z,99785.41
2022-07-30T11:23:14.135Z,99782.97
2022-07-30T11:24:15.311Z,99788.92
2022-07-30T11:25:17.801Z,99804.22
2022-07-30T11:26:20.279Z,99789.45
2022-07-30T11:27:24.579Z,99782.30
2022-07-30T11:28:26.897Z,99783.88
2022-07-30T11:29:32.922Z,99794.33
2022-07-30T11:30:31.832Z,99786.80
2022-07-30T11:31:55.898Z,99789.64
2022-07-30T11:32:38.491Z,99778.89
2022-07-30T11:33:40.870Z,99782.61
2022-07-30T11:34:44.923Z,99787.13
2022-07-30T11:35:47.264Z,99779.38
2022-07-30T11:36:49.779Z,99778.42
2022-07-30T11:37:52.437Z,99777.70
2022-07-30T11:38:54.768Z,99784.64
2022-07-30T11:39:58.883Z,99780.30
2022-07-30T11:41:02.863Z,99791.73
2022-07-30T11:42:05.273Z,99787.42
2022-07-30T11:43:09.310Z,99781.13
2022-07-30T11:44:11.679Z,99783.76
2022-07-30T11:45:14.212Z,99788.55
2022-07-30T11:46:18.287Z,99774.91
2022-07-30T11:47:22.267Z,99801.97
2022-07-30T11:48:26.227Z,99775.44
2022-07-30T11:49:28.602Z,99778.72
2022-07-30T11:50:31.042Z,99774.75
2022-07-30T11:51:35.143Z,99772.04
2022-07-30T11:52:37.560Z,99770.70
2022-07-30T11:53:41.658Z,99793.34
2022-07-30T11:54:43.997Z,99772.30
2022-07-30T11:55:46.531Z,99776.00
2022-07-30T11:56:49.036Z,99776.68
2022-07-30T11:57:51.540Z,99782.74
2022-07-30T11:58:55.629Z,99775.03
2022-07-30T11:59:58.073Z,99772.12
2022-07-30T12:01:02.152Z,99779.19
2022-07-30T12:02:06.330Z,99775.39
2022-07-30T12:03:08.664Z,99768.70
2022-07-30T12:04:11.096Z,99770.37
2022-07-30T12:05:15.172Z,99766.26
2022-07-30T12:06:19.167Z,99771.45
2022-07-30T12:07:21.501Z,99769.96
2022-07-30T12:08:31.750Z,99766.41
2022-07-30T12:09:29.587Z,99767.89
2022-07-30T12:10:31.907Z,99763.73
2022-07-30T12:11:34.377Z,99771.27
2022-07-30T12:12:36.862Z,99779.13
2022-07-30T12:13:44.713Z,99771.59
2022-07-30T12:14:41.795Z,99772.00
2022-07-30T12:15:44.315Z,99776.01
2022-07-30T12:16:46.824Z,99776.52
2022-07-30T12:17:51.394Z,99772.63
2022-07-30T12:18:53.478Z,99767.19
2022-07-30T12:19:55.823Z,99764.27
2022-07-30T12:21:00.141Z,99762.00
2022-07-30T12:22:04.068Z,99761.49
2022-07-30T12:23:21.519Z,99756.80
2022-07-30T12:25:37.043Z,99761.75
2022-07-30T12:26:41.146Z,99754.33
2022-07-30T12:27:43.527Z,99750.39
2022-07-30T12:28:47.651Z,99758.16
2022-07-30T12:29:51.714Z,99749.73
2022-07-30T12:30:54.022Z,99762.13
2022-07-30T12:31:56.495Z,99757.97
2022-07-30T12:33:00.611Z,99762.64
2022-07-30T12:34:04.572Z,99772.41
2022-07-30T12:43:36.495Z,99749.58
2022-07-30T12:44:39.039Z,99751.33
2022-07-30T12:45:51.547Z,99751.95
2022-07-30T12:46:45.576Z,99758.73
2022-07-30T12:47:49.644Z,99766.16
2022-07-30T12:48:52.099Z,99761.53
2022-07-30T12:49:56.309Z,99752.94
2022-07-30T12:51:00.264Z,99757.77
2022-07-30T12:52:04.224Z,99748.73
2022-07-30T12:53:06.652Z,99752.22
2022-07-30T13:03:44.528Z,99759.72
2022-07-30T13:04:54.728Z,99774.02
2022-07-30T13:05:51.964Z,99764.33
2022-07-30T13:06:55.897Z,99757.13
2022-07-30T13:07:58.343Z,99766.88
2022-07-30T13:09:00.791Z,99748.16
2022-07-30T13:10:04.885Z,99748.81
2022-07-30T13:11:07.227Z,99752.03
2022-07-30T13:12:09.808Z,99750.63
2022-07-30T13:13:13.866Z,99744.03
2022-07-30T13:14:16.323Z,99749.03
2022-07-30T13:15:20.427Z,99746.60
2022-07-30T13:16:22.751Z,99751.83
2022-07-30T13:17:25.193Z,99749.05
2022-07-30T13:18:29.312Z,99756.44
2022-07-30T13:19:31.744Z,99757.13
2022-07-30T13:20:35.684Z,99758.13
2022-07-30T13:21:39.698Z,99754.96
2022-07-30T13:22:42.009Z,99760.49
2022-07-30T13:23:46.058Z,99753.52
2022-07-30T13:24:48.439Z,99753.75
2022-07-30T13:25:50.912Z,99752.54
2022-07-30T13:26:54.988Z,99752.59
2022-07-30T13:27:57.402Z,99759.11
2022-07-30T13:29:02.132Z,99756.36
2022-07-30T13:30:03.781Z,99755.84
2022-07-30T13:31:08.908Z,99752.33
2022-07-30T13:32:11.191Z,99752.25
2022-07-30T13:33:13.702Z,99751.72
2022-07-30T13:34:16.204Z,99754.61
2022-07-30T13:35:18.699Z,99755.55
2022-07-30T13:36:21.124Z,99751.88
2022-07-30T13:37:23.745Z,99727.81
2022-07-30T13:38:26.197Z,99744.45
2022-07-30T13:39:28.678Z,99746.03
2022-07-30T13:40:32.871Z,99749.30
2022-07-30T13:41:35.285Z,99748.41
2022-07-30T13:42:37.789Z,99739.59
2022-07-30T13:43:40.337Z,99744.80
2022-07-30T13:44:44.445Z,99739.13
2022-07-30T13:45:46.935Z,99748.83
2022-07-30T13:46:50.992Z,99740.80
2022-07-30T13:47:54.973Z,99733.89
2022-07-30T13:48:57.447Z,99743.92
2022-07-30T13:49:59.843Z,99738.81
2022-07-30T13:51:03.997Z,99742.80
2022-07-30T13:52:08.185Z,99745.93
2022-07-30T13:53:10.498Z,99745.96
2022-07-30T13:54:13.866Z,99738.32
2022-07-30T13:55:15.720Z,99739.94
2022-07-30T13:56:19.564Z,99736.60
2022-07-30T13:57:22.329Z,99736.28
2022-07-30T13:58:24.714Z,99733.13
2022-07-30T13:59:28.883Z,99750.11
2022-07-30T14:00:32.855Z,99728.42
2022-07-30T14:01:35.173Z,99727.99
2022-07-30T14:02:37.721Z,99724.92
2022-07-30T14:03:40.206Z,99732.68
2022-07-30T14:04:48.339Z,99728.39
2022-07-30T14:05:50.494Z,99729.16
2022-07-30T14:06:53.014Z,99728.07
2022-07-30T14:07:57.374Z,99719.95
2022-07-30T14:08:59.771Z,99719.08
2022-07-30T14:10:02.217Z,99720.23
2022-07-30T14:11:07.336Z,99717.34
2022-07-30T14:12:09.601Z,99717.59
2022-07-30T14:13:20.665Z,99721.03
2022-07-30T14:14:19.354Z,99720.10
2022-07-30T14:15:23.420Z,99720.30
2022-07-30T14:16:44.019Z,99719.06
2022-07-30T14:17:29.866Z,99725.06
2022-07-30T14:18:33.958Z,99721.12
2022-07-30T14:19:37.860Z,99718.36
2022-07-30T14:20:40.203Z,99718.77
2022-07-30T14:21:42.708Z,99719.16
2022-07-30T14:22:50.832Z,99741.95
2022-07-30T14:23:52.974Z,99715.58
2022-07-30T14:24:55.500Z,99720.50
2022-07-30T14:26:03.611Z,99706.38
2022-07-30T14:27:07.370Z,99712.18
2022-07-30T14:28:11.320Z,99723.02
2022-07-30T14:29:13.653Z,99715.74
2022-07-30T14:30:17.662Z,99717.44
2022-07-30T14:31:20.112Z,99707.06
2022-07-30T14:32:23.333Z,99713.02
2022-07-30T14:33:25.055Z,99714.48
2022-07-30T14:34:27.674Z,99716.72
2022-07-30T14:35:30.130Z,99714.70
2022-07-30T14:36:39.248Z,99712.17
2022-07-30T14:37:43.000Z,99709.05
2022-07-30T14:38:46.972Z,99712.32
2022-07-30T14:39:54.979Z,99718.69
2022-07-30T14:40:57.340Z,99720.70
2022-07-30T14:41:59.814Z,99719.91
2022-07-30T14:43:02.322Z,99715.84
2022-07-30T14:44:04.841Z,99715.80
2022-07-30T14:45:07.337Z,99725.04
2022-07-30T14:46:09.842Z,99731.65
2022-07-30T14:47:13.457Z,99718.42
2022-07-30T14:48:16.577Z,99721.51
2022-07-30T14:49:18.922Z,99717.25
2022-07-30T14:50:21.449Z,99713.70
2022-07-30T14:51:33.734Z,99719.04
2022-07-30T14:52:33.371Z,99718.64
2022-07-30T14:53:35.867Z,99720.42
2022-07-30T14:54:38.309Z,99716.48
2022-07-30T14:55:42.432Z,99716.89
2022-07-30T14:56:45.908Z,99717.50
2022-07-30T14:57:48.264Z,99710.84
2022-07-30T14:58:50.787Z,99711.98
2022-07-30T14:59:54.870Z,99722.48
2022-07-30T15:01:01.209Z,99708.34
2022-07-30T15:02:05.474Z,99716.52
2022-07-30T15:03:07.348Z,99717.85
2022-07-30T15:04:09.818Z,99722.32
2022-07-30T15:05:13.932Z,99719.88
2022-07-30T15:06:17.887Z,99720.08
2022-07-30T15:07:20.251Z,99721.24
2022-07-30T15:08:22.715Z,99721.22
2022-07-30T15:09:25.227Z,99725.13
2022-07-30T15:10:33.251Z,99701.23
2022-07-30T15:11:44.815Z,99713.20
2022-07-30T15:12:38.207Z,99711.93
2022-07-30T15:13:49.849Z,99709.37
2022-07-30T15:14:44.695Z,99711.89
2022-07-30T15:15:48.618Z,99715.14
2022-07-30T15:25:18.545Z,99716.78
2022-07-30T15:26:21.009Z,99716.36
2022-07-30T15:27:31.740Z,99741.52
2022-07-30T15:28:27.849Z,99715.87
2022-07-30T15:29:30.349Z,99708.83
2022-07-30T15:30:34.391Z,99706.38
2022-07-30T15:31:36.816Z,99705.39
2022-07-30T15:32:41.187Z,99706.52
2022-07-30T15:33:45.182Z,99699.05
2022-07-30T15:34:48.556Z,99705.98
2022-07-30T15:35:55.988Z,99725.83
2022-07-30T15:36:58.133Z,99706.19
2022-07-30T15:38:02.302Z,99707.98
2022-07-30T15:39:04.647Z,99713.36
2022-07-30T15:40:07.225Z,99707.61
2022-07-30T15:41:13.607Z,99712.09
2022-07-30T15:42:15.318Z,99714.68
2022-07-30T15:43:19.310Z,99715.59
2022-07-30T15:44:21.692Z,99713.23
2022-07-30T15:45:25.799Z,99710.47
2022-07-30T15:46:29.772Z,99706.86
2022-07-30T15:47:33.730Z,99717.03
2022-07-30T15:48:36.096Z,99710.50
2022-07-30T15:49:38.555Z,99713.72
2022-07-30T15:50:46.652Z,99715.22
2022-07-30T15:51:48.901Z,99713.86
2022-07-30T15:52:51.223Z,99708.59
2022-07-30T15:53:55.365Z,99715.53
2022-07-30T15:54:58.773Z,99715.56
2022-07-30T15:56:02.819Z,99719.52
2022-07-30T15:57:06.823Z,99720.83
2022-07-30T15:58:09.217Z,99717.70
2022-07-30T15:59:13.344Z,99720.77
2022-07-30T16:00:17.448Z,99715.41
2022-07-30T16:01:19.715Z,99714.44
2022-07-30T16:02:23.191Z,99714.63
2022-07-30T16:03:27.220Z,99717.38
2022-07-30T16:04:31.689Z,99692.13
2022-07-30T16:05:51.046Z,99712.34
2022-07-30T16:06:36.326Z,99717.20
2022-07-30T16:07:38.769Z,99718.05
2022-07-30T16:08:41.261Z,99695.05
2022-07-30T16:09:43.772Z,99715.91
2022-07-30T16:10:46.286Z,99714.29
2022-07-30T16:11:50.341Z,99713.05
2022-07-30T16:12:52.730Z,99713.46
2022-07-30T16:13:55.227Z,99714.36
2022-07-30T16:14:57.717Z,99710.79
2022-07-30T16:16:00.220Z,99709.89
2022-07-30T16:17:04.373Z,99712.66
2022-07-30T16:18:06.752Z,99715.80
2022-07-30T16:19:09.220Z,99709.78
2022-07-30T16:20:13.342Z,99708.63
2022-07-30T16:21:15.717Z,99710.18
2022-07-30T16:22:22.245Z,99704.55
2022-07-30T16:23:22.149Z,99707.47
2022-07-30T16:24:26.231Z,99702.63
2022-07-30T16:25:28.585Z,99708.63
2022-07-30T16:26:31.141Z,99704.33
2022-07-30T16:27:35.255Z,99697.04
2022-07-30T16:28:39.165Z,99703.14
2022-07-30T16:29:43.172Z,99700.73
2022-07-30T16:30:49.072Z,99702.11
2022-07-30T16:31:49.621Z,99696.58
2022-07-30T16:32:53.653Z,99695.85
2022-07-30T16:33:55.952Z,99700.13
2022-07-30T16:34:58.469Z,99695.66
2022-07-30T16:36:06.619Z,99689.27
2022-07-30T16:37:08.839Z,99697.78
2022-07-30T16:38:13.873Z,99697.36
2022-07-30T16:39:17.243Z,99698.84
2022-07-30T16:40:19.649Z,99694.72
2022-07-30T16:41:22.195Z,99700.55
2022-07-30T16:42:26.306Z,99698.52
2022-07-30T16:43:30.478Z,99701.48
2022-07-30T16:44:38.522Z,99702.66
2022-07-30T16:45:42.320Z,99719.23
2022-07-30T16:46:46.278Z,99715.03
2022-07-30T16:47:48.649Z,99705.23
2022-07-30T16:48:51.194Z,99702.33
2022-07-30T16:49:55.234Z,99710.61
2022-07-30T16:50:57.648Z,99704.72
2022-07-30T16:52:00.426Z,99704.74
2022-07-30T16:53:02.907Z,99710.55
2022-07-30T16:54:10.962Z,99703.63
2022-07-30T16:55:13.116Z,99724.02
2022-07-30T16:56:17.265Z,99705.11
2022-07-30T16:57:19.651Z,99707.35
2022-07-30T16:58:22.227Z,99706.54
2022-07-30T16:59:24.684Z,99709.38
2022-07-30T17:00:27.190Z,99709.01
2022-07-30T17:01:29.753Z,99708.70
2022-07-30T17:02:32.207Z,99707.94
2022-07-30T17:03:34.707Z,99711.98
2022-07-30T17:04:38.825Z,99713.86
2022-07-30T17:05:45.082Z,99709.67
2022-07-30T17:06:45.378Z,99721.16
2022-07-30T17:07:49.372Z,99713.25
2022-07-30T17:08:51.780Z,99711.08
2022-07-30T17:09:54.252Z,99708.77
2022-07-30T17:10:58.346Z,99715.84
2022-07-30T17:12:02.485Z,99689.72
2022-07-30T17:13:06.317Z,99690.64
2022-07-30T17:14:08.689Z,99711.44
2022-07-30T17:15:11.176Z,99710.32
2022-07-30T17:16:13.671Z,99710.08
2022-07-30T17:17:16.112Z,99716.34
2022-07-30T17:18:18.599Z,99714.29
2022-07-30T17:19:21.126Z,99716.25
2022-07-30T17:20:23.841Z,99731.05
2022-07-30T17:21:27.935Z,99723.22
2022-07-30T17:22:30.384Z,99734.41
2022-07-30T17:23:32.851Z,99718.84
2022-07-30T17:24:35.325Z,99718.16
2022-07-30T17:25:37.844Z,99720.72
2022-07-30T17:26:40.391Z,99723.55
2022-07-30T17:27:42.792Z,99722.73
2022-07-30T17:28:46.868Z,99723.55
2022-07-30T17:29:50.434Z,99725.89
2022-07-30T17:30:51.661Z,99699.73
2022-07-30T17:31:55.793Z,99720.27
2022-07-30T17:32:59.706Z,99715.20
2022-07-30T17:34:02.029Z,99720.13
2022-07-30T17:35:09.809Z,99734.09
2022-07-30T17:36:09.454Z,99719.23
2022-07-30T17:37:11.972Z,99744.51
2022-07-30T17:38:16.034Z,99716.83
2022-07-30T17:40:18.921Z,99720.28
2022-07-30T17:40:30.127Z,99721.50
2022-07-30T17:41:24.831Z,99721.13
2022-07-30T17:42:27.261Z,99721.19
2022-07-30T17:43:29.713Z,99724.39
2022-07-30T17:44:32.147Z,99729.18
2022-07-30T17:45:36.207Z,99724.83
2022-07-30T17:46:38.695Z,99730.46
2022-07-30T17:47:41.085Z,99728.02
2022-07-30T17:48:43.519Z,99734.29
2022-07-30T17:49:47.638Z,99728.63
2022-07-30T17:50:52.809Z,99725.83
2022-07-30T17:51:56.590Z,99727.41
2022-07-30T17:52:58.880Z,99726.73
2022-07-30T17:54:01.319Z,99724.38
2022-07-30T17:55:03.802Z,99724.70
2022-07-30T17:56:06.298Z,99725.34
2022-07-30T17:57:08.775Z,99726.12
2022-07-30T17:58:11.220Z,99722.53
2022-07-30T17:59:14.132Z,99724.69
2022-07-30T18:00:16.150Z,99705.47
2022-07-30T18:01:18.655Z,99724.78
2022-07-30T18:02:27.441Z,99722.75
2022-07-30T18:03:23.562Z,99720.52
2022-07-30T18:04:27.637Z,99725.02
2022-07-30T18:05:31.647Z,99724.81
2022-07-30T18:06:35.585Z,99725.55
2022-07-30T18:07:39.517Z,99719.05
2022-07-30T18:08:41.932Z,99728.14
2022-07-30T18:09:45.961Z,99714.17
2022-07-30T18:10:49.915Z,99727.45
2022-07-30T18:11:53.267Z,99723.53
2022-07-30T18:12:57.249Z,99722.10
2022-07-30T18:13:59.606Z,99728.56
2022-07-30T18:15:03.629Z,99740.92
2022-07-30T18:16:06.064Z,99730.25
2022-07-30T18:17:14.168Z,99731.32
2022-07-30T18:18:13.441Z,99729.29
2022-07-30T18:19:22.489Z,99731.77
2022-07-30T18:20:19.978Z,99724.68
2022-07-30T18:21:23.933Z,99732.37
2022-07-30T18:22:28.241Z,99733.12
2022-07-30T18:23:29.824Z,99736.34
2022-07-30T18:24:31.163Z,99731.86
2022-07-30T18:25:51.283Z,99735.94
2022-07-30T18:26:38.565Z,99736.83
2022-07-30T18:27:42.552Z,99739.95
2022-07-30T18:28:44.984Z,99733.23
2022-07-30T18:29:49.068Z,99737.11
2022-07-30T18:30:51.436Z,99738.59
2022-07-30T18:31:55.559Z,99737.24
2022-07-30T18:32:57.860Z,99741.51
2022-07-30T18:34:01.919Z,99736.56
2022-07-30T18:35:04.297Z,99741.30
2022-07-30T18:36:06.776Z,99740.98
2022-07-30T18:37:09.209Z,99743.87
2022-07-30T18:38:11.695Z,99742.04
2022-07-30T18:39:15.203Z,99746.88
2022-07-30T18:40:20.677Z,99739.30
2022-07-30T18:41:19.997Z,99742.59
2022-07-30T18:42:23.552Z,99742.78
2022-07-30T18:43:27.554Z,99743.66
2022-07-30T18:44:29.887Z,99744.97
2022-07-30T18:45:36.692Z,99751.52
2022-07-30T18:46:36.426Z,99759.61
2022-07-30T18:47:38.800Z,99751.21
2022-07-30T18:48:41.348Z,99755.95
2022-07-30T18:49:43.834Z,99753.94
2022-07-30T18:50:46.237Z,99758.52
2022-07-30T18:51:50.538Z,99757.30
2022-07-30T18:52:52.861Z,99759.23
2022-07-30T18:53:55.353Z,99757.29
2022-07-30T18:54:57.784Z,99758.74
2022-07-30T18:56:01.867Z,99771.88
2022-07-30T18:57:04.192Z,99757.83
2022-07-30T18:58:06.608Z,99757.41
2022-07-30T18:59:09.151Z,99757.57
2022-07-30T19:00:32.744Z,99769.79
2022-07-30T19:01:14.151Z,99747.21
2022-07-30T19:02:18.107Z,99752.38
2022-07-30T19:11:49.898Z,99769.30
2022-07-30T19:21:22.474Z,99780.66
2022-07-30T19:30:56.309Z,99789.39
2022-07-30T19:40:31.968Z,99804.00
2022-07-30T19:50:04.361Z,99817.27
2022-07-30T19:59:45.958Z,99825.16
2022-07-30T20:09:15.281Z,99832.30
2022-07-30T20:18:48.176Z,99839.02
2022-07-30T20:28:23.616Z,99832.08
2022-07-30T20:37:57.878Z,99839.23
2022-07-30T20:47:34.543Z,99837.78